Latest Weather Observations for Port Macquarie Airport

IDN60801

Issued at 12:32 pm EST Thursday 26 May 2016 (issued every 30 minutes, with the page automatically refreshed every 10 minutes)

About weather observations | Map of weather stations | Latest weather observations for NSW | Other Formats
Station Details ID: 060139 Name: PORT MACQUARIE AIRPORT AWS Lat: -31.43 Lon: 152.87 Height: 4.2 m
Data from the previous 72 hours. | See also: Recent months at Port Macquarie Airport
Date/Time
EST
Temp
°C
App
Temp
°C
Dew
Point
Rel
Hum
%
Delta-T
°C
Wind Press
QNH
hPa
Press
MSL
hPa
Rain
since 9 am
mm
Dir
 
Spd
km/h
Gust
km/h
Spd
kts
Gust
kts
26/12:30pm 13.1 12.8 8.8 75 2.2 CALM 0 0 0 0 1007.7 1007.7 0.0
26/12:00pm 13.0 12.6 8.3 73 2.3 CALM 0 6 0 3 1008.3 1008.3 0.0
26/11:30am 12.8 9.4 7.5 70 2.6 WNW 15 20 8 11 1008.9 1008.9 0.0
26/11:00am 12.4 11.3 8.5 77 1.9 NW 4 7 2 4 1008.5 1008.5 0.0
26/10:30am 12.8 11.2 7.9 72 2.4 N 6 7 3 4 1009.1 1009.1 0.0
26/10:00am 12.8 11.9 7.9 72 2.4 WNW 2 9 1 5 1010.2 1010.2 0.0
26/09:30am 11.4 10.2 7.9 79 1.7 N 4 7 2 4 1010.6 1010.6 0.0
26/09:00am 10.5 9.6 7.7 83 1.3 WNW 2 7 1 4 1011.3 1011.3 0.0
26/08:30am 10.3 8.4 7.7 84 1.2 NNW 7 11 4 6 1011.5 1011.5 0.0
26/08:00am 10.4 9.0 7.1 80 1.6 NW 4 9 2 5 1011.4 1011.4 0.0
26/07:30am 9.5 9.0 7.9 90 0.8 CALM 0 0 0 0 1011.4 1011.4 0.0
26/07:00am 8.5 7.5 7.4 93 0.5 WNW 2 7 1 4 1011.8 1011.8 0.0
26/06:30am 8.1 7.4 7.0 93 0.5 CALM 0 0 0 0 1011.9 1011.9 0.0
26/06:00am 7.3 6.4 6.2 93 0.5 CALM 0 0 0 0 1012.0 1012.0 0.0
26/05:30am 7.3 6.4 6.1 92 0.5 CALM 0 0 0 0 1011.8 1011.8 0.0
26/05:00am 7.0 5.4 6.4 96 0.3 WNW 4 9 2 5 1011.7 1011.7 0.0
26/04:30am 5.3 3.0 4.6 95 0.3 W 6 9 3 5 1011.6 1011.6 0.0
26/04:00am 5.0 3.6 3.7 91 0.5 CALM 0 0 0 0 1011.3 1011.3 0.0
26/03:30am 6.6 3.9 5.7 94 0.4 NNE 9 11 5 6 1011.4 1011.4 0.0
26/03:00am 6.1 3.9 5.1 93 0.4 NNW 6 9 3 5 1012.0 1012.0 0.0
26/02:30am 6.3 3.9 5.3 93 0.4 NNW 7 7 4 4 1012.4 1012.4 0.0
26/02:00am 6.9 4.8 6.0 94 0.4 NNW 6 7 3 4 1012.6 1012.6 0.0
26/01:30am 6.3 5.3 5.4 94 0.4 CALM 0 0 0 0 1013.0 1013.0 0.0
26/01:00am 5.3 4.1 4.4 94 0.4 CALM 0 0 0 0 1013.3 1013.3 0.0
26/12:30am 5.4 4.1 4.2 92 0.5 CALM 0 6 0 3 1013.7 1013.7 0.0
26/12:00am 5.5 4.3 4.5 93 0.4 CALM 0 0 0 0 1014.0 1014.0 0.0
 
Date/Time
EST
Temp
°C
App
Temp
°C
Dew
Point
Rel
Hum
%
Delta-T
°C
Wind Press
QNH
hPa
Press
MSL
hPa
Rain
since 9 am
mm
Dir
 
Spd
km/h
Gust
km/h
Spd
kts
Gust
kts
25/11:30pm 5.0 3.6 3.7 91 0.5 CALM 0 0 0 0 1014.2 1014.2 0.0
25/11:00pm 6.9 6.1 6.3 96 0.3 CALM 0 0 0 0 1014.5 1014.5 0.0
25/10:30pm 5.8 4.7 4.9 94 0.4 CALM 0 0 0 0 1014.8 1014.8 0.0
25/10:00pm 6.4 5.4 5.4 93 0.4 CALM 0 0 0 0 1015.0 1015.0 0.0
25/09:30pm 6.5 5.4 5.3 92 0.5 CALM 0 0 0 0 1015.4 1015.4 0.0
25/09:00pm 6.9 6.0 6.0 94 0.4 CALM 0 0 0 0 1015.4 1015.4 0.0
25/08:30pm 6.9 5.9 5.4 90 0.7 CALM 0 0 0 0 1015.5 1015.5 0.0
25/08:00pm 7.9 7.1 6.4 90 0.7 CALM 0 0 0 0 1015.4 1015.4 0.0
25/07:30pm 8.7 7.9 6.7 87 0.9 CALM 0 0 0 0 1015.3 1015.3 0.0
25/07:00pm 9.3 8.7 7.3 87 0.9 CALM 0 0 0 0 1015.2 1015.2 0.0
25/06:30pm 9.5 8.8 6.8 83 1.3 CALM 0 0 0 0 1015.1 1015.1 0.0
25/06:00pm 11.2 10.8 8.1 81 1.5 CALM 0 0 0 0 1014.7 1014.7 0.0
25/05:30pm 11.8 11.3 7.9 77 1.9 CALM 0 0 0 0 1014.5 1014.5 0.0
25/05:00pm 13.3 12.8 8.0 70 2.6 CALM 0 0 0 0 1014.3 1014.3 0.0
25/04:30pm 15.8 15.4 8.1 60 3.9 CALM 0 0 0 0 1014.3 1014.3 0.0
25/04:00pm 18.4 15.5 4.9 41 6.5 E 9 13 5 7 1014.0 1014.0 0.0
25/03:30pm 19.8 16.5 4.3 36 7.4 E 11 13 6 7 1014.5 1014.5 0.0
25/03:00pm 20.0 16.8 3.3 33 7.9 E 9 13 5 7 1014.3 1014.3 0.0
25/02:30pm 20.1 16.7 4.2 35 7.6 ESE 11 15 6 8 1014.4 1014.4 0.0
25/02:00pm 20.4 17.1 4.8 36 7.6 ESE 11 19 6 10 1014.8 1014.8 0.0
25/01:30pm 21.0 18.2 5.0 35 7.9 NE 9 13 5 7 1015.1 1015.1 0.0
25/01:00pm 21.3 18.8 3.5 31 8.5 NNE 6 11 3 6 1015.4 1015.4 0.0
25/12:30pm 21.0 17.9 3.7 32 8.3 NE 9 13 5 7 1015.6 1015.6 0.0
25/12:00pm 20.0 17.2 3.3 33 7.9 WNW 7 11 4 6 1016.1 1016.1 0.0
25/11:30am 19.7 18.0 3.8 35 7.6 WNW 2 9 1 5 1016.8 1016.8 0.0
25/11:00am 18.7 16.3 4.5 39 6.8 NNW 6 9 3 5 1017.2 1017.2 0.0
25/10:30am 17.7 15.7 6.3 47 5.6 NNW 6 11 3 6 1017.6 1017.6 0.0
25/10:00am 15.1 12.6 6.4 56 4.2 NNW 9 11 5 6 1017.9 1017.9 0.0
25/09:30am 14.3 11.4 4.9 53 4.4 WNW 9 13 5 7 1018.2 1018.2 0.0
25/09:00am 13.3 10.9 7.1 66 3.0 WNW 9 13 5 7 1018.1 1018.1 0.0
25/08:30am 10.7 8.8 6.5 75 2.0 WNW 6 7 3 4 1017.9 1017.9 0.0
25/08:00am 7.9 5.9 6.4 90 0.7 NW 6 7 3 4 1017.8 1017.8 0.0
25/07:30am 3.2 1.6 2.6 96 0.2 CALM 0 0 0 0 1017.8 1017.8 0.0
25/07:00am 1.3 -0.6 0.4 94 0.3 CALM 0 0 0 0 1017.5 1017.5 0.0
25/06:30am 0.6 -1.4 -0.3 94 0.3 CALM 0 0 0 0 1017.3 1017.3 0.0
25/06:00am 1.0 -1.0 0.1 94 0.3 CALM 0 0 0 0 1017.1 1017.1 0.0
25/05:30am 0.9 -1.1 0.0 94 0.3 CALM 0 0 0 0 1016.8 1016.8 0.0
25/05:00am 1.6 -0.3 0.6 93 0.4 CALM 0 0 0 0 1016.8 1016.8 0.0
25/04:30am 1.3 -0.6 0.4 94 0.3 CALM 0 0 0 0 1016.7 1016.7 0.0
25/04:00am 1.9 0.1 1.0 94 0.3 CALM 0 0 0 0 1016.3 1016.3 0.0
25/03:37am 2.1 0.3 1.2 94 0.3 CALM 0 0 0 0 1016.2 1016.2 0.0
25/03:30am 1.8 0.0 0.9 94 0.3 CALM 0 0 0 0 1016.3 1016.3 0.0
25/03:01am 2.2 0.4 1.3 94 0.3 CALM 0 0 0 0 1016.4 1016.4 0.0
25/03:00am 2.0 0.2 1.1 94 0.3 CALM 0 0 0 0 1016.4 1016.4 0.0
25/02:30am 2.6 0.9 1.7 94 0.3 CALM 0 0 0 0 1016.6 1016.6 0.0
25/02:11am 2.5 0.7 1.5 93 0.4 CALM 0 0 0 0 1016.8 1016.8 0.0
25/02:00am 2.7 1.0 1.8 94 0.3 CALM 0 0 0 0 1016.8 1016.8 0.0
25/01:30am 2.6 0.9 1.6 93 0.4 CALM 0 0 0 0 1016.8 1016.8 0.0
25/01:20am 2.9 1.2 1.7 92 0.5 CALM 0 0 0 0 1016.8 1016.8 0.0
25/01:00am 3.6 2.0 2.6 93 0.4 CALM 0 0 0 0 1016.9 1016.9 0.0
25/12:30am 3.5 1.8 2.0 90 0.6 CALM 0 0 0 0 1017.0 1017.0 0.0
25/12:28am 3.6 2.0 2.3 91 0.5 CALM 0 0 0 0 1017.0 1017.0 0.0
25/12:00am 4.8 3.4 3.6 92 0.5 CALM 0 0 0 0 1016.9 1016.9 0.0
 
Date/Time
EST
Temp
°C
App
Temp
°C
Dew
Point
Rel
Hum
%
Delta-T
°C
Wind Press
QNH
hPa
Press
MSL
hPa
Rain
since 9 am
mm
Dir
 
Spd
km/h
Gust
km/h
Spd
kts
Gust
kts
24/11:50pm 4.7 3.2 2.9 88 0.7 CALM 0 0 0 0 1016.9 1016.9 0.0
24/11:30pm 5.4 3.6 3.4 87 0.8 NW 2 7 1 4 1016.6 1016.6 0.0
24/11:00pm 8.5 6.6 7.4 93 0.5 N 7 9 4 5 1016.6 1016.6 0.0
24/10:30pm 6.5 4.4 5.9 96 0.3 NNW 6 7 3 4 1016.5 1016.5 0.0
24/10:00pm 5.6 4.4 4.4 92 0.5 CALM 0 6 0 3 1016.5 1016.5 0.0
24/09:30pm 5.8 4.6 4.8 93 0.4 CALM 0 0 0 0 1016.5 1016.5 0.0
24/09:00pm 6.2 5.0 4.8 91 0.6 CALM 0 0 0 0 1016.4 1016.4 0.0
24/08:55pm 6.9 6.0 6.0 94 0.4 CALM 0 0 0 0 1016.3 1016.3 0.0
24/08:35pm 6.3 5.2 5.1 92 0.5 CALM 0 0 0 0 1016.3 1016.3 0.0
24/08:30pm 6.6 5.6 5.4 92 0.5 CALM 0 0 0 0 1016.4 1016.4 0.0
24/08:00pm 7.3 6.4 6.1 92 0.5 CALM 0 0 0 0 1016.2 1016.2 0.0
24/07:30pm 7.7 6.8 6.2 90 0.7 CALM 0 0 0 0 1016.1 1016.1 0.0
24/07:00pm 8.1 7.2 6.1 87 0.9 CALM 0 0 0 0 1015.9 1015.9 0.0
24/06:30pm 8.9 8.1 6.7 86 1.0 CALM 0 0 0 0 1015.6 1015.6 0.0
24/06:00pm 10.5 9.6 7.7 83 1.3 WSW 2 7 1 4 1015.3 1015.3 0.0
24/05:30pm 11.8 11.2 7.3 74 2.2 CALM 0 6 0 3 1014.8 1014.8 0.0
24/05:00pm 13.9 13.4 7.7 66 3.1 CALM 0 0 0 0 1014.5 1014.5 0.0
24/04:30pm 17.8 15.8 7.2 50 5.3 NNE 7 11 4 6 1014.4 1014.4 0.0
24/04:00pm 20.0 17.8 6.0 40 7.0 E 7 9 4 5 1014.2 1014.2 0.0
24/03:30pm 20.6 17.6 5.8 38 7.4 ESE 11 15 6 8 1013.9 1013.9 0.0
24/03:00pm 21.6 19.2 4.2 32 8.4 E 6 13 3 7 1013.8 1013.8 0.0
24/02:30pm 21.4 18.1 4.5 33 8.2 E 11 13 6 7 1013.8 1013.8 0.0
24/02:00pm 22.4 19.5 1.4 25 9.7 NW 6 11 3 6 1014.0 1014.0 0.0
24/01:30pm 21.7 19.6 1.4 26 9.3 NE 2 7 1 4 1014.2 1014.2 0.0
24/01:00pm 21.4 18.8 1.1 26 9.3 NW 4 7 2 4 1014.8 1014.8 0.0
24/12:30pm 21.3 18.3 2.1 28 8.9 SSW 7 11 4 6 1015.5 1015.5 0.0
24/12:00pm 20.9 16.7 1.7 28 8.8 SW 13 19 7 10 1016.0 1016.0 0.0
24/11:30am 20.3 15.8 2.2 30 8.4 SW 15 20 8 11 1016.8 1016.8 0.0
24/11:00am 19.7 14.8 2.1 31 8.1 WSW 17 24 9 13 1017.5 1017.5 0.0
24/10:30am 19.4 14.2 2.3 32 7.9 WSW 19 26 10 14 1017.8 1017.8 0.0
24/10:00am 18.4 13.6 2.7 35 7.2 WSW 17 22 9 12 1018.2 1018.2 0.0
24/09:30am 17.9 14.1 4.1 40 6.5 W 13 17 7 9 1018.2 1018.2 0.0
24/09:00am 16.6 12.5 2.2 38 6.4 W 13 19 7 10 1018.2 1018.2 0.0
24/08:30am 15.5 11.0 2.0 40 6.0 W 15 20 8 11 1018.3 1018.3 0.0
24/08:00am 14.3 10.7 2.9 46 5.1 W 11 13 6 7 1018.4 1018.4 0.0
24/07:30am 9.4 6.1 4.8 73 2.1 WSW 11 11 6 6 1018.3 1018.3 0.0
24/07:00am 7.0 4.2 1.9 70 2.1 ESE 6 7 3 4 1018.2 1018.2 0.0
24/06:30am 10.8 6.8 0.8 50 4.1 W 11 17 6 9 1017.9 1017.9 0.0
24/06:00am 12.2 7.6 1.8 49 4.4 W 15 19 8 10 1017.7 1017.7 0.0
24/05:30am 9.1 5.6 1.0 57 3.3 WSW 9 15 5 8 1017.5 1017.5 0.0
24/05:19am 10.8 6.9 3.6 61 3.2 W 13 17 7 9 1017.2 1017.2 0.0
24/05:00am 5.5 2.0 1.2 74 1.7 W 9 13 5 7 1017.3 1017.3 0.0
24/04:30am 6.3 4.5 1.4 71 2.0 CALM 0 6 0 3 1017.1 1017.1 0.0
24/04:00am 8.0 5.7 0.5 59 3.0 S 2 6 1 3 1017.0 1017.0 0.0
24/03:51am 9.0 5.3 -0.3 52 3.7 W 9 13 5 7 1017.0 1017.0 0.0
24/03:30am 14.0 9.3 1.0 41 5.6 WNW 15 19 8 10 1016.8 1016.8 0.0
24/03:00am 13.4 9.2 1.4 44 5.1 WNW 13 17 7 9 1016.7 1016.7 0.0
24/02:30am 14.1 9.6 2.0 44 5.3 WNW 15 20 8 11 1016.7 1016.7 0.0
24/02:00am 14.5 9.6 2.1 43 5.4 WNW 17 20 9 11 1016.5 1016.5 0.0
24/01:30am 14.9 10.5 2.8 44 5.4 W 15 20 8 11 1016.6 1016.6 0.0
24/01:00am 13.2 10.1 3.8 53 4.2 W 9 15 5 8 1016.6 1016.6 0.0
24/12:30am 12.6 9.8 3.0 52 4.2 WSW 7 11 4 6 1016.4 1016.4 0.0
24/12:00am 15.2 12.5 3.7 46 5.3 SSW 7 9 4 5 1016.4 1016.4 0.0
 
Date/Time
EST
Temp
°C
App
Temp
°C
Dew
Point
Rel
Hum
%
Delta-T
°C
Wind Press
QNH
hPa
Press
MSL
hPa
Rain
since 9 am
mm
Dir
 
Spd
km/h
Gust
km/h
Spd
kts
Gust
kts
23/11:30pm 15.1 11.7 4.2 48 5.0 WSW 11 13 6 7 1016.2 1016.2 0.0
23/11:00pm 16.4 13.0 4.1 44 5.7 WSW 11 13 6 7 1016.1 1016.1 0.0
23/10:30pm 18.2 14.2 4.7 41 6.5 WSW 15 19 8 10 1015.8 1015.8 0.0
23/10:00pm 19.8 15.1 6.2 41 6.8 SW 20 26 11 14 1015.6 1015.6 0.0
23/09:30pm 20.9 16.1 8.9 46 6.3 SSW 24 32 13 17 1015.4 1015.4 0.0
23/09:00pm 21.6 18.5 12.2 55 5.3 SSW 20 32 11 17 1014.9 1014.9 0.0
23/08:30pm 17.5 17.7 14.8 84 1.6 SW 7 9 4 5 1014.2 1014.2 0.0
23/08:00pm 17.7 18.0 16.0 90 1.0 SW 9 13 5 7 1014.0 1014.0 0.0
23/07:30pm 17.3 18.0 15.6 90 1.0 WSW 6 7 3 4 1013.5 1013.5 0.0
23/07:00pm 17.7 18.3 15.7 88 1.2 WNW 7 7 4 4 1013.2 1013.2 0.0
23/06:30pm 18.2 19.8 16.0 87 1.3 ENE 2 7 1 4 1013.0 1013.0 0.0
23/06:00pm 19.1 21.1 16.1 83 1.8 CALM 0 0 0 0 1012.7 1012.7 0.0
23/05:30pm 19.7 21.8 16.3 81 2.0 CALM 0 0 0 0 1012.4 1012.4 0.0
23/05:00pm 21.0 23.0 16.0 73 3.0 CALM 0 0 0 0 1012.3 1012.3 0.0
23/04:30pm 23.8 24.6 15.8 61 4.8 NE 6 7 3 4 1012.1 1012.1 0.0
23/04:00pm 25.2 25.7 15.5 55 5.9 NNE 7 9 4 5 1012.0 1012.0 0.0
23/03:30pm 24.9 24.6 15.5 56 5.7 NE 11 13 6 7 1011.9 1011.9 0.0
23/03:00pm 26.0 25.0 14.5 49 6.9 NE 13 17 7 9 1011.9 1011.9 0.0
23/02:30pm 26.0 24.5 14.1 47 7.1 NE 15 22 8 12 1011.8 1011.8 0.0
23/02:00pm 26.3 25.5 15.0 49 6.8 ENE 13 15 7 8 1012.0 1012.0 0.0
23/01:30pm 25.7 25.3 16.3 56 5.8 ENE 13 17 7 9 1012.3 1012.3 0.0
23/01:00pm 26.6 26.2 14.0 46 7.5 NNE 9 15 5 8 1012.7 1012.7 0.0

Other Formats:

Comma delimited format used in spreadsheet applications
http://www.bom.gov.au/fwo/IDN60801/IDN60801.94786.axf

JavaScript Object Notation format (JSON) in row-major order
http://www.bom.gov.au/fwo/IDN60801/IDN60801.94786.json